FIN958 EKCH-EFHK
Flight info
| Callsign | FIN958 |
|---|---|
| Flight time | N/A |
| Altitude | 37000 |
| Route | KEMAX T408 OTVEB DCT ALAMI DCT OKEVU DCT EVADI Y370 DIVAM |
| Aircraft | A321/M-SDE1E2E3FGHIJ1J4J5M1RWXYZ/LB1D1 |
Departure
| Time | N/A |
|---|---|
| Airport | Copenhagen Kastrup Airport (EKCH) |
Arrival
| Time | 2026-04-24 19:22 |
|---|---|
| Airport | Helsinki Vantaa Airport (EFHK) |
| Time | Latitude | Longitude | Altitude | Speed | Heading |
|---|---|---|---|---|---|
| 2026-04-24 18:54 | 58.94426 | 20.61177 | 36903 ft | 462 kts | 53° |
| 2026-04-24 18:55 | 58.99768 | 20.76788 | 36887 ft | 462 kts | 53° |
| 2026-04-24 18:56 | 59.03317 | 20.87235 | 36884 ft | 463 kts | 54° |
| 2026-04-24 18:56 | 59.06801 | 20.97695 | 36898 ft | 463 kts | 55° |
| 2026-04-24 18:57 | 59.10163 | 21.08415 | 36907 ft | 464 kts | 56° |
| 2026-04-24 18:57 | 59.13457 | 21.19125 | 36890 ft | 464 kts | 56° |
| 2026-04-24 18:58 | 59.16797 | 21.29903 | 36881 ft | 463 kts | 56° |
| 2026-04-24 18:58 | 59.20159 | 21.40683 | 36177 ft | 469 kts | 56° |
| 2026-04-24 18:58 | 59.21829 | 21.46051 | 35609 ft | 468 kts | 56° |
| 2026-04-24 18:59 | 59.23521 | 21.51510 | 34955 ft | 469 kts | 57° |
| 2026-04-24 18:59 | 59.25204 | 21.56962 | 34361 ft | 469 kts | 57° |
| 2026-04-24 18:59 | 59.26883 | 21.62419 | 33820 ft | 467 kts | 57° |
| 2026-04-24 18:59 | 59.28547 | 21.67853 | 33267 ft | 464 kts | 57° |
| 2026-04-24 19:00 | 59.30201 | 21.73274 | 32776 ft | 460 kts | 57° |
| 2026-04-24 19:00 | 59.31834 | 21.78647 | 32273 ft | 456 kts | 57° |
| 2026-04-24 19:00 | 59.33430 | 21.83911 | 31781 ft | 453 kts | 57° |
| 2026-04-24 19:00 | 59.35029 | 21.89194 | 31286 ft | 449 kts | 57° |
| 2026-04-24 19:01 | 59.36620 | 21.94446 | 30774 ft | 446 kts | 57° |
| 2026-04-24 19:01 | 59.38200 | 21.99662 | 30281 ft | 442 kts | 57° |
| 2026-04-24 19:01 | 59.39764 | 22.04833 | 29764 ft | 439 kts | 57° |
| 2026-04-24 19:01 | 59.41318 | 22.09968 | 29262 ft | 434 kts | 57° |
| 2026-04-24 19:02 | 59.42333 | 22.13328 | 28955 ft | 431 kts | 57° |
| 2026-04-24 19:02 | 59.44358 | 22.20049 | 28347 ft | 424 kts | 57° |
| 2026-04-24 19:02 | 59.45851 | 22.25027 | 27857 ft | 420 kts | 57° |
| 2026-04-24 19:02 | 59.47324 | 22.29965 | 27407 ft | 416 kts | 57° |
| 2026-04-24 19:03 | 59.48777 | 22.34854 | 26973 ft | 412 kts | 57° |
| 2026-04-24 19:03 | 59.50197 | 22.39642 | 26544 ft | 408 kts | 56° |
| 2026-04-24 19:03 | 59.51623 | 22.44460 | 26128 ft | 405 kts | 56° |
| 2026-04-24 19:03 | 59.53038 | 22.49245 | 25708 ft | 402 kts | 56° |
| 2026-04-24 19:04 | 59.54444 | 22.54010 | 25291 ft | 400 kts | 56° |
| 2026-04-24 19:04 | 59.55840 | 22.58744 | 24887 ft | 398 kts | 56° |
| 2026-04-24 19:04 | 59.57224 | 22.63447 | 24481 ft | 395 kts | 56° |
| 2026-04-24 19:04 | 59.58599 | 22.68131 | 24076 ft | 393 kts | 56° |
| 2026-04-24 19:05 | 59.59948 | 22.72735 | 23682 ft | 391 kts | 56° |
| 2026-04-24 19:05 | 59.61305 | 22.77383 | 23225 ft | 389 kts | 55° |
| 2026-04-24 19:05 | 59.62650 | 22.81994 | 22790 ft | 386 kts | 55° |
| 2026-04-24 19:05 | 59.63982 | 22.86573 | 22360 ft | 382 kts | 55° |
| 2026-04-24 19:06 | 59.65297 | 22.91104 | 21944 ft | 378 kts | 55° |
| 2026-04-24 19:06 | 59.66596 | 22.95596 | 21523 ft | 374 kts | 55° |
| 2026-04-24 19:06 | 59.67885 | 23.00056 | 21096 ft | 370 kts | 54° |
| 2026-04-24 19:06 | 59.69165 | 23.04412 | 20878 ft | 361 kts | 53° |
| 2026-04-24 19:07 | 59.70458 | 23.08575 | 20618 ft | 360 kts | 52° |
| 2026-04-24 19:07 | 59.71813 | 23.12787 | 20287 ft | 361 kts | 51° |
| 2026-04-24 19:07 | 59.72711 | 23.15548 | 19999 ft | 360 kts | 51° |
| 2026-04-24 19:07 | 59.74588 | 23.21299 | 19439 ft | 381 kts | 51° |
| 2026-04-24 19:08 | 59.76000 | 23.25683 | 19189 ft | 371 kts | 51° |
| 2026-04-24 19:08 | 59.77351 | 23.29964 | 18957 ft | 362 kts | 51° |
| 2026-04-24 19:08 | 59.78664 | 23.34145 | 18504 ft | 361 kts | 51° |
| 2026-04-24 19:08 | 59.79991 | 23.38372 | 18077 ft | 358 kts | 51° |
| 2026-04-24 19:09 | 59.81306 | 23.42558 | 17603 ft | 355 kts | 51° |
| 2026-04-24 19:09 | 59.82610 | 23.46708 | 17173 ft | 351 kts | 51° |
| 2026-04-24 19:09 | 59.83901 | 23.50818 | 16774 ft | 346 kts | 51° |
| 2026-04-24 19:09 | 59.85155 | 23.54818 | 16376 ft | 342 kts | 51° |
| 2026-04-24 19:10 | 59.86404 | 23.58819 | 15825 ft | 337 kts | 51° |
| 2026-04-24 19:10 | 59.87636 | 23.62779 | 15160 ft | 334 kts | 52° |
| 2026-04-24 19:10 | 59.88850 | 23.66686 | 14529 ft | 330 kts | 52° |
| 2026-04-24 19:10 | 59.90051 | 23.70555 | 13916 ft | 326 kts | 52° |
| 2026-04-24 19:11 | 59.91226 | 23.74347 | 13282 ft | 323 kts | 52° |
| 2026-04-24 19:11 | 59.92387 | 23.78101 | 12886 ft | 311 kts | 52° |
| 2026-04-24 19:11 | 59.93502 | 23.81723 | 12433 ft | 305 kts | 51° |
| 2026-04-24 19:11 | 59.94620 | 23.85335 | 12025 ft | 306 kts | 51° |
| 2026-04-24 19:12 | 59.95738 | 23.88940 | 11642 ft | 304 kts | 52° |
| 2026-04-24 19:12 | 59.96850 | 23.92534 | 11268 ft | 302 kts | 52° |
| 2026-04-24 19:12 | 59.97932 | 23.96054 | 10946 ft | 299 kts | 52° |
| 2026-04-24 19:12 | 59.99019 | 23.99608 | 10693 ft | 299 kts | 52° |
| 2026-04-24 19:13 | 59.99737 | 24.01956 | 10504 ft | 298 kts | 52° |
| 2026-04-24 19:13 | 60.01150 | 24.06586 | 10250 ft | 286 kts | 52° |
| 2026-04-24 19:13 | 60.02188 | 24.09971 | 9742 ft | 291 kts | 52° |
| 2026-04-24 19:13 | 60.03253 | 24.13442 | 9216 ft | 293 kts | 52° |
| 2026-04-24 19:14 | 60.04323 | 24.16945 | 8684 ft | 296 kts | 53° |
| 2026-04-24 19:14 | 60.05400 | 24.20480 | 8151 ft | 297 kts | 53° |
| 2026-04-24 19:14 | 60.06474 | 24.24013 | 7682 ft | 297 kts | 53° |
| 2026-04-24 19:14 | 60.07548 | 24.27548 | 7216 ft | 296 kts | 53° |
| 2026-04-24 19:15 | 60.08613 | 24.31061 | 6796 ft | 294 kts | 54° |
| 2026-04-24 19:15 | 60.09647 | 24.34492 | 6451 ft | 290 kts | 54° |
| 2026-04-24 19:15 | 60.10680 | 24.37925 | 6138 ft | 284 kts | 54° |
| 2026-04-24 19:15 | 60.11679 | 24.41250 | 5743 ft | 273 kts | 54° |
| 2026-04-24 19:16 | 60.13564 | 24.47536 | 4993 ft | 254 kts | 54° |
| 2026-04-24 19:16 | 60.14462 | 24.50529 | 4629 ft | 246 kts | 54° |
| 2026-04-24 19:16 | 60.15334 | 24.53436 | 4256 ft | 239 kts | 55° |
| 2026-04-24 19:17 | 60.16192 | 24.56303 | 3916 ft | 239 kts | 55° |
| 2026-04-24 19:17 | 60.17040 | 24.59149 | 3644 ft | 235 kts | 55° |
| 2026-04-24 19:17 | 60.17865 | 24.61919 | 3407 ft | 227 kts | 55° |
| 2026-04-24 19:17 | 60.18654 | 24.64570 | 3144 ft | 221 kts | 55° |
| 2026-04-24 19:18 | 60.19433 | 24.67181 | 2902 ft | 213 kts | 55° |
| 2026-04-24 19:18 | 60.20221 | 24.69565 | 2731 ft | 195 kts | 49° |
| 2026-04-24 19:18 | 60.21059 | 24.71573 | 2512 ft | 181 kts | 44° |
| 2026-04-24 19:18 | 60.21876 | 24.73391 | 2359 ft | 168 kts | 43° |
| 2026-04-24 19:19 | 60.22654 | 24.75094 | 2299 ft | 163 kts | 43° |
| 2026-04-24 19:19 | 60.23411 | 24.76746 | 2302 ft | 162 kts | 43° |
| 2026-04-24 19:19 | 60.24170 | 24.78403 | 2212 ft | 159 kts | 43° |
| 2026-04-24 19:19 | 60.24925 | 24.80049 | 2020 ft | 160 kts | 43° |
| 2026-04-24 19:20 | 60.25710 | 24.81762 | 1795 ft | 166 kts | 44° |
| 2026-04-24 19:20 | 60.26469 | 24.83426 | 1570 ft | 155 kts | 43° |
| 2026-04-24 19:20 | 60.27181 | 24.84986 | 1359 ft | 148 kts | 44° |
| 2026-04-24 19:20 | 60.27872 | 24.86500 | 1172 ft | 145 kts | 43° |
| 2026-04-24 19:21 | 60.28550 | 24.87995 | 949 ft | 144 kts | 44° |
| 2026-04-24 19:21 | 60.29231 | 24.89496 | 774 ft | 145 kts | 44° |
| 2026-04-24 19:21 | 60.29910 | 24.90970 | 562 ft | 146 kts | 44° |
| 2026-04-24 19:21 | 60.30600 | 24.92472 | 351 ft | 147 kts | 45° |
| 2026-04-24 19:22 | 60.31065 | 24.93499 | 220 ft | 146 kts | 46° |
| 2026-04-24 19:22 | 60.31881 | 24.95281 | 175 ft | 103 kts | 47° |
| 2026-04-24 19:22 | 60.32233 | 24.96058 | 177 ft | 45 kts | 48° |
| 2026-04-24 19:22 | 60.32380 | 24.96404 | 177 ft | 21 kts | 65° |
| 2026-04-24 19:23 | 60.32357 | 24.96596 | 172 ft | 11 kts | 128° |
| 2026-04-24 19:23 | 60.32312 | 24.96657 | 168 ft | 5 kts | 151° |
| 2026-04-24 19:23 | 60.32265 | 24.96710 | 166 ft | 10 kts | 151° |
| 2026-04-24 19:23 | 60.32195 | 24.96790 | 165 ft | 13 kts | 150° |
| 2026-04-24 19:24 | 60.32108 | 24.96870 | 164 ft | 14 kts | 182° |
| 2026-04-24 19:24 | 60.32051 | 24.96757 | 164 ft | 7 kts | 230° |
| 2026-04-24 19:24 | 60.32009 | 24.96730 | 163 ft | 5 kts | 178° |
| 2026-04-24 19:24 | 60.31986 | 24.96735 | 163 ft | 3 kts | 174° |
| 2026-04-24 19:25 | 60.31971 | 24.96738 | 163 ft | 1 kts | 174° |
| 2026-04-24 19:25 | 60.31969 | 24.96739 | 163 ft | 0 kts | 174° |